createdAt,value
2022-11-15T00:01:17.527Z,32.37
2022-11-15T00:03:44.697Z,32.40
2022-11-15T00:06:11.574Z,29.87
2022-11-15T00:08:38.451Z,31.83
2022-11-15T00:11:05.393Z,31.37
2022-11-15T00:13:32.560Z,29.93
2022-11-15T00:16:01.423Z,31.03
2022-11-15T00:18:29.587Z,34.00
2022-11-15T00:20:57.801Z,30.97
2022-11-15T00:23:24.641Z,30.80
2022-11-15T00:25:58.790Z,33.47
2022-11-15T00:28:26.421Z,32.57
2022-11-15T00:30:53.322Z,34.00
2022-11-15T00:33:20.305Z,29.90
2022-11-15T00:35:47.216Z,32.60
2022-11-15T00:38:14.061Z,32.20
2022-11-15T00:40:40.949Z,31.83
2022-11-15T00:43:07.768Z,30.40
2022-11-15T00:45:34.934Z,33.30
2022-11-15T00:48:01.764Z,32.50
2022-11-15T00:50:28.637Z,30.27
2022-11-15T00:52:55.511Z,32.77
2022-11-15T00:55:22.381Z,31.47
2022-11-15T00:57:49.355Z,32.50
2022-11-15T01:00:16.686Z,31.03
2022-11-15T01:02:43.533Z,33.47
2022-11-15T01:05:10.432Z,31.00
2022-11-15T01:07:37.365Z,32.57
2022-11-15T01:10:05.471Z,33.43
2022-11-15T01:12:32.958Z,33.20
2022-11-15T01:14:59.825Z,31.43
2022-11-15T01:17:26.872Z,33.37
2022-11-15T01:19:53.824Z,32.07
2022-11-15T01:22:20.935Z,31.33
2022-11-15T01:24:47.778Z,33.13
2022-11-15T01:27:14.646Z,32.57
2022-11-15T01:29:41.511Z,34.60
2022-11-15T01:32:08.561Z,32.47
2022-11-15T01:34:35.423Z,32.83
2022-11-15T01:37:02.559Z,34.13
2022-11-15T01:39:29.457Z,33.70
2022-11-15T01:41:56.502Z,32.30
2022-11-15T01:44:51.649Z,31.13
2022-11-15T01:47:32.713Z,31.00
2022-11-15T01:50:05.781Z,33.27
2022-11-15T01:52:36.270Z,31.70
2022-11-15T01:55:08.765Z,31.50
2022-11-15T01:57:35.970Z,33.50
2022-11-15T02:00:06.390Z,35.17
2022-11-15T02:02:36.702Z,35.07
2022-11-15T02:05:03.787Z,32.67
2022-11-15T02:07:33.360Z,35.03
2022-11-15T02:10:07.928Z,31.80
2022-11-15T02:12:35.259Z,32.73
2022-11-15T02:15:02.907Z,31.93
2022-11-15T02:17:45.903Z,33.00
2022-11-15T02:20:22.003Z,32.50
2022-11-15T02:23:08.505Z,32.93
2022-11-15T02:26:31.420Z,31.90
2022-11-15T02:29:38.846Z,31.77
2022-11-15T02:32:36.186Z,32.97
2022-11-15T02:35:44.298Z,32.87
2022-11-15T02:38:34.004Z,33.07
2022-11-15T02:41:11.267Z,31.30
2022-11-15T02:44:06.314Z,33.00
2022-11-15T02:47:15.991Z,33.17
2022-11-15T02:49:48.497Z,33.00
2022-11-15T02:52:24.565Z,31.00
2022-11-15T02:54:59.902Z,33.40
2022-11-15T02:57:50.765Z,34.57
2022-11-15T03:00:22.164Z,32.50
2022-11-15T03:03:19.540Z,31.87
2022-11-15T03:06:46.769Z,32.30
2022-11-15T03:09:44.220Z,31.80
2022-11-15T03:12:29.031Z,31.70
2022-11-15T03:15:07.903Z,32.67
2022-11-15T03:18:11.534Z,31.30
2022-11-15T03:20:38.482Z,29.87
2022-11-15T03:23:10.511Z,31.60
2022-11-15T03:25:47.084Z,31.87
2022-11-15T03:28:21.390Z,30.90
2022-11-15T03:30:50.958Z,32.77
2022-11-15T03:33:19.749Z,32.77
2022-11-15T03:35:48.497Z,30.70
2022-11-15T03:38:30.970Z,32.67
2022-11-15T03:41:02.700Z,32.30
2022-11-15T03:44:06.272Z,32.33
2022-11-15T03:46:57.927Z,30.53
2022-11-15T03:49:32.186Z,31.70
2022-11-15T03:52:00.369Z,33.60
2022-11-15T03:54:27.252Z,31.40
2022-11-15T03:56:54.218Z,33.27
2022-11-15T03:59:21.123Z,30.30
2022-11-15T04:01:48.309Z,30.53
2022-11-15T04:04:15.304Z,32.37
2022-11-15T04:06:43.018Z,31.10
2022-11-15T04:09:09.855Z,31.47
2022-11-15T04:11:36.784Z,32.50
2022-11-15T04:14:03.661Z,32.63
2022-11-15T04:16:30.527Z,30.20
2022-11-15T04:19:16.217Z,32.27
2022-11-15T04:22:01.530Z,29.67
2022-11-15T04:24:28.369Z,29.60
2022-11-15T04:26:55.221Z,29.70
2022-11-15T04:29:37.147Z,32.47
2022-11-15T04:32:06.850Z,31.07
2022-11-15T04:34:34.302Z,30.50
2022-11-15T04:37:12.964Z,31.00
2022-11-15T04:39:41.154Z,30.70
2022-11-15T04:42:09.079Z,29.63
2022-11-15T04:44:36.560Z,31.43
2022-11-15T04:47:03.900Z,28.83
2022-11-15T04:49:30.804Z,30.50
2022-11-15T04:51:57.732Z,29.30
2022-11-15T04:54:24.705Z,30.90
2022-11-15T04:56:51.646Z,30.40
2022-11-15T04:59:18.588Z,30.80
2022-11-15T05:01:45.532Z,30.67
2022-11-15T05:04:21.730Z,31.53
2022-11-15T05:06:52.728Z,29.40
2022-11-15T05:09:21.175Z,29.00
2022-11-15T05:11:48.533Z,31.10
2022-11-15T05:14:16.045Z,31.00
2022-11-15T05:16:43.269Z,33.00
2022-11-15T05:19:10.380Z,31.33
2022-11-15T05:21:37.545Z,32.47
2022-11-15T05:24:04.931Z,31.23
2022-11-15T05:26:31.854Z,30.00
2022-11-15T05:29:00.240Z,31.37
2022-11-15T05:31:28.481Z,30.50
2022-11-15T05:33:57.583Z,30.83
2022-11-15T05:36:42.320Z,32.40
2022-11-15T05:39:10.042Z,34.13
2022-11-15T05:42:05.935Z,31.93
2022-11-15T05:44:33.556Z,31.83
2022-11-15T05:47:00.644Z,31.60
2022-11-15T05:49:33.402Z,30.63
2022-11-15T05:52:00.978Z,31.80
2022-11-15T05:54:28.246Z,33.53
2022-11-15T05:56:56.747Z,31.70
2022-11-15T05:59:23.792Z,32.77
2022-11-15T06:01:50.770Z,30.47
2022-11-15T06:04:17.713Z,31.90
2022-11-15T06:06:44.754Z,30.80
2022-11-15T06:09:11.656Z,30.00
2022-11-15T06:11:38.515Z,33.30
2022-11-15T06:14:05.738Z,32.03
2022-11-15T06:16:32.673Z,31.23
2022-11-15T06:18:59.638Z,29.40
2022-11-15T06:21:28.830Z,32.10
2022-11-15T06:23:55.862Z,31.40
2022-11-15T06:26:22.730Z,34.27
2022-11-15T06:28:49.690Z,31.93
2022-11-15T06:31:16.592Z,33.33
2022-11-15T06:33:43.470Z,35.50
2022-11-15T06:36:17.767Z,34.40
2022-11-15T06:38:46.146Z,32.27
2022-11-15T06:41:14.838Z,31.40
2022-11-15T06:43:42.217Z,30.40
2022-11-15T06:46:10.301Z,30.03
2022-11-15T06:48:37.534Z,32.30
2022-11-15T06:51:05.719Z,30.50
2022-11-15T06:53:33.922Z,31.43
2022-11-15T06:56:07.222Z,30.77
2022-11-15T06:58:34.826Z,31.53
2022-11-15T07:01:04.750Z,31.60
2022-11-15T07:03:32.680Z,28.17
2022-11-15T07:06:06.647Z,30.50
2022-11-15T07:08:35.017Z,28.40
2022-11-15T07:11:05.742Z,30.60
2022-11-15T07:13:35.291Z,29.07
2022-11-15T07:16:09.563Z,29.90
2022-11-15T07:18:41.119Z,27.40
2022-11-15T07:21:11.895Z,24.30
2022-11-15T07:23:39.921Z,26.30
2022-11-15T07:26:08.578Z,28.43
2022-11-15T07:28:36.366Z,25.20
2022-11-15T07:31:08.726Z,25.00
2022-11-15T07:33:36.603Z,25.47
2022-11-15T07:36:08.161Z,24.40
2022-11-15T07:38:42.282Z,25.20
2022-11-15T07:41:09.857Z,22.87
2022-11-15T07:43:36.861Z,24.90
2022-11-15T07:46:10.370Z,25.13
2022-11-15T07:48:44.416Z,24.00
2022-11-15T07:51:15.219Z,24.67
2022-11-15T07:53:43.721Z,24.57
2022-11-15T07:56:12.025Z,24.80
2022-11-15T07:58:38.863Z,24.30
2022-11-15T08:01:10.968Z,23.83
2022-11-15T08:03:38.455Z,23.83
2022-11-15T08:06:05.941Z,21.97
2022-11-15T08:08:32.868Z,23.60
2022-11-15T08:11:00.441Z,23.03
2022-11-15T08:13:27.397Z,23.60
2022-11-15T08:16:02.955Z,24.20
2022-11-15T08:18:30.041Z,23.20
2022-11-15T08:21:01.302Z,24.53
2022-11-15T08:23:28.791Z,23.00
2022-11-15T08:26:04.552Z,22.70
2022-11-15T08:28:33.499Z,22.43
2022-11-15T08:31:00.342Z,22.77
2022-11-15T08:33:27.293Z,20.73
2022-11-15T08:35:58.430Z,22.83
2022-11-15T08:38:25.558Z,22.67
2022-11-15T08:40:54.378Z,23.20
2022-11-15T08:43:21.249Z,21.67
2022-11-15T08:45:48.127Z,20.27
2022-11-15T08:48:15.206Z,21.57
2022-11-15T08:50:44.549Z,22.10
2022-11-15T08:53:11.582Z,21.03
2022-11-15T08:55:40.325Z,20.30
2022-11-15T08:58:07.845Z,20.63
2022-11-15T09:00:34.974Z,21.10
2022-11-15T09:03:06.097Z,19.90
2022-11-15T09:05:33.568Z,19.30
2022-11-15T09:08:00.830Z,19.53
2022-11-15T09:10:28.955Z,18.90
2022-11-15T09:12:58.120Z,17.20
2022-11-15T09:15:25.003Z,17.30
2022-11-15T09:17:51.834Z,19.87
2022-11-15T09:20:18.898Z,19.20
2022-11-15T09:22:45.748Z,17.60
2022-11-15T09:25:12.650Z,16.80
2022-11-15T09:27:39.551Z,18.27
2022-11-15T09:30:07.256Z,18.00
2022-11-15T09:32:39.009Z,17.30
2022-11-15T09:35:06.678Z,17.90
2022-11-15T09:37:33.904Z,17.53
2022-11-15T09:40:00.827Z,18.30
2022-11-15T09:42:53.313Z,19.27
2022-11-15T09:45:42.333Z,18.95
2022-11-15T09:48:54.016Z,18.13
2022-11-15T09:51:35.321Z,18.90
2022-11-15T09:54:51.513Z,17.60
2022-11-15T09:57:16.240Z,17.50
2022-11-15T09:59:55.431Z,15.80
2022-11-15T10:03:09.180Z,17.70
2022-11-15T10:05:45.263Z,18.17
2022-11-15T10:08:46.004Z,17.27
2022-11-15T10:11:36.656Z,16.90
2022-11-15T10:14:19.867Z,17.37
2022-11-15T10:17:30.899Z,16.43
2022-11-15T10:20:22.341Z,16.37
2022-11-15T10:23:06.214Z,32.77
2022-11-15T10:25:36.355Z,16.80
2022-11-15T10:28:28.596Z,15.25
2022-11-15T10:30:58.917Z,15.50
2022-11-15T10:33:40.399Z,15.87
2022-11-15T10:38:49.349Z,15.67
2022-11-15T10:41:35.922Z,16.13
2022-11-15T10:44:12.053Z,15.40
2022-11-15T10:46:47.494Z,15.37
2022-11-15T10:49:26.996Z,16.17
2022-11-15T10:52:15.000Z,15.47
2022-11-15T10:55:22.153Z,14.50
2022-11-15T10:57:56.631Z,16.33
2022-11-15T11:00:42.668Z,14.50
2022-11-15T11:03:36.168Z,16.53
2022-11-15T11:06:16.649Z,15.50
2022-11-15T11:08:59.748Z,15.50
2022-11-15T11:11:52.193Z,15.60
2022-11-15T11:14:29.198Z,16.60
2022-11-15T11:17:23.213Z,15.50
2022-11-15T11:20:30.712Z,15.27
2022-11-15T11:23:28.147Z,15.90
2022-11-15T11:26:40.107Z,15.20
2022-11-15T11:29:27.242Z,15.20
2022-11-15T11:32:03.005Z,15.97
2022-11-15T11:34:56.089Z,15.60
2022-11-15T11:38:43.657Z,15.77
2022-11-15T11:41:47.865Z,15.13
2022-11-15T11:44:39.417Z,15.00
2022-11-15T11:47:16.257Z,15.00
2022-11-15T11:49:47.551Z,23.00
2022-11-15T11:52:35.760Z,19.93
2022-11-15T11:55:19.320Z,15.80
2022-11-15T11:57:58.036Z,16.17
2022-11-15T12:00:29.369Z,14.70
2022-11-15T12:03:05.317Z,16.10
2022-11-15T12:05:58.718Z,15.40
2022-11-15T12:09:03.264Z,15.10
2022-11-15T12:11:59.423Z,15.13
2022-11-15T12:14:48.021Z,15.57
2022-11-15T12:17:17.607Z,15.77
2022-11-15T12:19:44.590Z,15.47
2022-11-15T12:22:47.432Z,15.80
2022-11-15T12:25:30.687Z,14.60
2022-11-15T12:29:04.557Z,14.27
2022-11-15T12:31:36.213Z,14.60
2022-11-15T12:34:14.938Z,14.00
2022-11-15T12:36:45.228Z,14.80
2022-11-15T12:39:14.193Z,13.97
2022-11-15T12:41:44.545Z,13.47
2022-11-15T12:44:34.030Z,14.00
2022-11-15T12:47:24.552Z,13.47
2022-11-15T12:49:51.856Z,15.30
2022-11-15T12:52:19.694Z,13.97
2022-11-15T12:55:02.140Z,14.37
2022-11-15T12:57:31.588Z,15.60
2022-11-15T13:00:38.558Z,14.30
2022-11-15T13:03:22.149Z,15.37
2022-11-15T13:05:59.266Z,15.90
2022-11-15T13:08:50.456Z,15.37
2022-11-15T13:11:46.690Z,15.03
2022-11-15T13:14:38.103Z,15.13
2022-11-15T13:17:30.945Z,14.97
2022-11-15T13:20:12.411Z,17.30
2022-11-15T13:22:51.756Z,17.07
2022-11-15T13:25:37.817Z,15.97
2022-11-15T13:28:46.235Z,15.97
2022-11-15T13:31:46.803Z,15.27
2022-11-15T13:34:53.246Z,15.33
2022-11-15T13:37:23.135Z,14.40
2022-11-15T13:39:50.863Z,14.80
2022-11-15T13:42:20.839Z,14.30
2022-11-15T13:45:03.732Z,15.47
2022-11-15T13:47:32.715Z,16.03
2022-11-15T13:50:02.391Z,17.93
2022-11-15T13:52:37.616Z,17.43
2022-11-15T13:55:18.177Z,14.10
2022-11-15T13:58:07.260Z,15.30
2022-11-15T14:00:44.324Z,15.33
2022-11-15T14:03:27.005Z,14.60
2022-11-15T14:06:16.925Z,14.77
2022-11-15T14:09:02.169Z,15.27
2022-11-15T14:11:29.513Z,16.03
2022-11-15T14:14:09.269Z,16.23
2022-11-15T14:16:41.596Z,13.83
2022-11-15T14:19:32.814Z,14.87
2022-11-15T14:22:26.396Z,13.63
2022-11-15T14:25:23.193Z,15.23
2022-11-15T14:28:16.248Z,13.13
2022-11-15T14:30:48.096Z,15.43
2022-11-15T14:33:34.011Z,14.07
2022-11-15T14:36:21.412Z,14.67
2022-11-15T14:38:49.084Z,14.53
2022-11-15T14:41:20.611Z,16.13
2022-11-15T14:43:47.857Z,14.30
2022-11-15T14:46:14.762Z,14.80
2022-11-15T14:48:41.726Z,17.27
2022-11-15T14:51:18.056Z,14.57
2022-11-15T14:53:46.405Z,15.70
2022-11-15T14:56:14.280Z,15.33
2022-11-15T14:58:41.220Z,15.77
2022-11-15T15:01:20.598Z,16.07
2022-11-15T15:03:47.551Z,14.53
2022-11-15T15:06:18.024Z,15.60
2022-11-15T15:08:46.914Z,16.17
2022-11-15T15:11:25.008Z,13.83
2022-11-15T15:13:53.285Z,16.37
2022-11-15T15:16:20.815Z,17.37
2022-11-15T15:18:47.776Z,15.67
2022-11-15T15:21:28.083Z,17.10
2022-11-15T15:23:56.747Z,16.07
2022-11-15T15:26:25.127Z,16.33
2022-11-15T15:28:52.711Z,16.30
2022-11-15T15:31:19.875Z,16.40
2022-11-15T15:33:46.963Z,16.30
2022-11-15T15:36:17.933Z,16.30
2022-11-15T15:38:45.029Z,16.00
2022-11-15T15:41:13.012Z,18.00
2022-11-15T15:43:40.258Z,16.83
2022-11-15T15:46:13.709Z,16.33
2022-11-15T15:48:40.611Z,17.27
2022-11-15T15:51:14.324Z,17.70
2022-11-15T15:53:47.224Z,16.23
2022-11-15T15:56:14.092Z,17.47
2022-11-15T15:58:40.986Z,17.05
2022-11-15T16:03:34.643Z,15.77
2022-11-15T16:06:02.061Z,16.25
2022-11-15T16:08:42.558Z,16.70
2022-11-15T16:11:17.505Z,16.10
2022-11-15T16:13:44.427Z,17.77
2022-11-15T16:16:14.628Z,16.63
2022-11-15T16:18:41.531Z,16.70
2022-11-15T16:21:09.602Z,17.80
2022-11-15T16:23:36.524Z,16.90
2022-11-15T16:26:13.544Z,18.30
2022-11-15T16:28:40.418Z,16.50
2022-11-15T16:31:12.230Z,18.30
2022-11-15T16:36:23.316Z,19.80
2022-11-15T16:38:52.994Z,18.60
2022-11-15T16:41:20.409Z,20.27
2022-11-15T16:43:47.502Z,18.50
2022-11-15T16:46:25.519Z,20.60
2022-11-15T16:48:56.220Z,21.30
2022-11-15T16:51:24.121Z,20.80
2022-11-15T16:53:51.449Z,21.20
2022-11-15T16:56:31.684Z,22.55
2022-11-15T16:59:00.347Z,21.50
2022-11-15T17:04:13.131Z,22.57
2022-11-15T17:06:41.401Z,21.87
2022-11-15T17:09:18.241Z,22.90
2022-11-15T17:11:45.496Z,25.33
2022-11-15T17:14:13.513Z,24.37
2022-11-15T17:16:42.542Z,25.70
2022-11-15T17:19:18.786Z,26.55
2022-11-15T17:21:47.016Z,26.40
2022-11-15T17:24:13.882Z,27.47
2022-11-15T17:26:41.224Z,29.57
2022-11-15T17:29:08.292Z,30.70
2022-11-15T17:31:40.991Z,30.20
2022-11-15T17:34:08.710Z,30.33
2022-11-15T17:36:36.311Z,30.07
2022-11-15T17:39:05.165Z,32.80
2022-11-15T17:41:35.897Z,33.03
2022-11-15T17:44:03.785Z,29.47
2022-11-15T17:46:31.633Z,33.57
2022-11-15T17:49:01.572Z,35.10
2022-11-15T17:51:29.431Z,33.10
2022-11-15T17:53:57.660Z,35.63
2022-11-15T17:56:27.890Z,34.80
2022-11-15T17:58:57.653Z,33.40
2022-11-15T18:01:30.979Z,35.40
2022-11-15T18:04:00.734Z,35.10
2022-11-15T18:06:31.332Z,34.40
2022-11-15T18:09:01.658Z,35.57
2022-11-15T18:11:41.877Z,34.53
2022-11-15T18:14:14.705Z,35.60
2022-11-15T18:16:42.893Z,34.67
2022-11-15T18:19:13.831Z,36.13
2022-11-15T18:21:56.875Z,35.97
2022-11-15T18:24:27.706Z,34.23
2022-11-15T18:26:55.258Z,35.50
2022-11-15T18:29:24.881Z,34.97
2022-11-15T18:31:55.796Z,35.40
2022-11-15T18:34:31.936Z,36.60
2022-11-15T18:37:00.126Z,35.83
2022-11-15T18:39:27.409Z,38.10
2022-11-15T18:41:58.344Z,37.10
2022-11-15T18:44:25.675Z,35.77
2022-11-15T18:46:52.704Z,34.90
2022-11-15T18:49:20.538Z,39.50
2022-11-15T18:51:48.720Z,36.70
2022-11-15T18:54:17.488Z,36.90
2022-11-15T18:56:45.953Z,35.43
2022-11-15T18:59:13.632Z,38.23
2022-11-15T19:01:48.600Z,35.53
2022-11-15T19:04:20.720Z,40.40
2022-11-15T19:06:50.233Z,36.93
2022-11-15T19:09:19.759Z,38.27
2022-11-15T19:11:51.516Z,37.37
2022-11-15T19:14:19.602Z,37.57
2022-11-15T19:16:55.244Z,36.73
2022-11-15T19:19:25.495Z,34.10
2022-11-15T19:21:53.458Z,38.27
2022-11-15T19:24:20.738Z,36.07
2022-11-15T19:26:47.794Z,35.20
2022-11-15T19:29:15.456Z,35.13
2022-11-15T19:31:42.889Z,35.20
2022-11-15T19:34:10.209Z,34.47
2022-11-15T19:36:40.258Z,35.50
2022-11-15T19:39:13.678Z,35.93
2022-11-15T19:41:43.293Z,33.73
2022-11-15T19:44:11.943Z,34.83
2022-11-15T19:46:40.220Z,35.40
2022-11-15T19:49:10.427Z,38.10
2022-11-15T19:51:39.015Z,38.77
2022-11-15T19:54:08.852Z,38.30
2022-11-15T19:56:36.479Z,36.10
2022-11-15T19:59:05.073Z,37.97
2022-11-15T20:01:39.594Z,35.67
2022-11-15T20:04:09.917Z,37.00
2022-11-15T20:06:41.902Z,38.70
2022-11-15T20:09:13.980Z,38.67
2022-11-15T20:11:41.417Z,39.53
2022-11-15T20:14:09.881Z,36.57
2022-11-15T20:16:37.457Z,36.80
2022-11-15T20:19:04.773Z,34.03
2022-11-15T20:21:32.055Z,36.27
2022-11-15T20:23:59.243Z,33.77
2022-11-15T20:26:26.468Z,32.53
2022-11-15T20:28:53.457Z,32.77
2022-11-15T20:31:21.803Z,34.53
2022-11-15T20:33:48.787Z,31.47
2022-11-15T20:36:16.102Z,33.33
2022-11-15T20:38:44.532Z,33.73
2022-11-15T20:41:13.247Z,34.27
2022-11-15T20:43:43.502Z,35.80
2022-11-15T20:46:12.569Z,34.27
2022-11-15T20:48:40.510Z,34.43
2022-11-15T20:51:15.389Z,33.70
2022-11-15T20:53:43.661Z,34.17
2022-11-15T20:56:14.593Z,31.70
2022-11-15T20:58:42.592Z,34.50
2022-11-15T21:01:14.249Z,31.40
2022-11-15T21:03:41.636Z,32.40
2022-11-15T21:06:09.001Z,31.63
2022-11-15T21:08:54.611Z,32.13
2022-11-15T21:11:40.209Z,32.83
2022-11-15T21:14:09.465Z,32.93
2022-11-15T21:16:37.807Z,30.43
2022-11-15T21:19:06.029Z,31.07
2022-11-15T21:21:33.670Z,30.60
2022-11-15T21:24:06.951Z,32.80
2022-11-15T21:26:34.958Z,31.20
2022-11-15T21:29:02.692Z,31.33
2022-11-15T21:31:30.177Z,30.00
2022-11-15T21:33:57.083Z,32.67
2022-11-15T21:36:25.098Z,31.53
2022-11-15T21:38:53.780Z,29.30
2022-11-15T21:41:20.729Z,31.20
2022-11-15T21:43:47.566Z,31.27
2022-11-15T21:46:14.458Z,32.43
2022-11-15T21:48:41.365Z,31.90
2022-11-15T21:51:11.582Z,30.40
2022-11-15T21:53:38.452Z,33.20
2022-11-15T21:56:06.719Z,31.43
2022-11-15T21:58:33.902Z,30.50
2022-11-15T22:01:19.881Z,30.63
2022-11-15T22:03:47.140Z,32.77
2022-11-15T22:06:17.731Z,29.73
2022-11-15T22:08:46.340Z,30.70
2022-11-15T22:11:14.607Z,28.60
2022-11-15T22:13:41.734Z,29.70
2022-11-15T22:16:09.781Z,29.80
2022-11-15T22:18:37.678Z,30.17
2022-11-15T22:21:17.503Z,29.40
2022-11-15T22:23:45.991Z,28.73
2022-11-15T22:26:22.028Z,28.83
2022-11-15T22:28:50.344Z,31.40
2022-11-15T22:31:17.295Z,27.53
2022-11-15T22:33:44.404Z,30.47
2022-11-15T22:36:12.996Z,27.70
2022-11-15T22:38:40.213Z,29.57
2022-11-15T22:41:07.378Z,31.23
2022-11-15T22:43:34.609Z,29.00
2022-11-15T22:46:03.559Z,29.37
2022-11-15T22:48:37.266Z,29.17
2022-11-15T22:51:06.023Z,28.40
2022-11-15T22:53:33.400Z,29.80
2022-11-15T22:56:03.521Z,28.90
2022-11-15T22:58:32.809Z,30.30
2022-11-15T23:01:03.564Z,29.73
2022-11-15T23:03:31.162Z,28.87
2022-11-15T23:06:07.066Z,31.67
2022-11-15T23:08:35.252Z,30.27
2022-11-15T23:11:23.238Z,28.50
2022-11-15T23:13:53.388Z,29.17
2022-11-15T23:16:22.768Z,28.57
2022-11-15T23:18:58.156Z,30.10
2022-11-15T23:21:52.466Z,28.70
2022-11-15T23:24:20.641Z,31.10
2022-11-15T23:26:50.830Z,29.10
2022-11-15T23:29:21.456Z,30.77
2022-11-15T23:32:07.265Z,27.80
2022-11-15T23:34:40.212Z,29.97
2022-11-15T23:37:10.727Z,30.33
2022-11-15T23:39:37.865Z,27.53
2022-11-15T23:42:09.005Z,29.20
2022-11-15T23:44:36.977Z,28.60
2022-11-15T23:47:04.316Z,30.43
2022-11-15T23:49:31.249Z,21.50
2022-11-15T23:52:00.750Z,30.37
2022-11-15T23:54:27.689Z,28.27
2022-11-15T23:56:54.610Z,30.10
2022-11-15T23:59:21.589Z,33.67
